Time;durP1;ratioP1;P1;durP2;ratioP2;P2;SDS_P1;SDS_P2;PMS_P1;PMS_P2;Temp;Humidity;BMP_temperature;BMP_pressure;BME280_temperature;BME280_humidity;BME280_pressure;Samples;Min_cycle;Max_cycle;Signal;HPM_P1;HPM_P2
2022/10/01 00:01:46;;;;;;;30.13;17.85;;;11.00;99.90;;;;;;5033498;28;20484;-69
2022/10/01 00:04:12;;;;;;;31.15;17.92;;;11.00;99.90;;;;;;5026955;28;20033;-69
2022/10/01 00:06:37;;;;;;;28.65;16.83;;;11.00;99.90;;;;;;5041072;28;20048;-69
2022/10/01 00:09:03;;;;;;;27.83;16.70;;;11.00;99.90;;;;;;5037716;28;20546;-69
2022/10/01 00:11:29;;;;;;;28.23;17.55;;;11.00;99.90;;;;;;5062559;28;20037;-69
2022/10/01 00:13:56;;;;;;;33.67;18.98;;;11.00;99.90;;;;;;5035315;28;20041;-69
2022/10/01 00:16:24;;;;;;;38.75;18.90;;;10.90;99.90;;;;;;5036477;28;20040;-67
2022/10/01 00:18:52;;;;;;;28.95;17.67;;;10.90;99.90;;;;;;5038032;28;20049;-69
2022/10/01 00:21:21;;;;;;;31.38;17.77;;;10.90;99.90;;;;;;5039261;28;20140;-70
2022/10/01 00:23:52;;;;;;;34.22;19.60;;;10.90;99.90;;;;;;5040761;28;20048;-67
2022/10/01 00:26:22;;;;;;;31.75;18.92;;;11.00;99.90;;;;;;5036339;28;20140;-69
2022/10/01 00:28:53;;;;;;;34.72;19.83;;;11.00;99.90;;;;;;5034577;28;20051;-69
2022/10/01 00:31:19;;;;;;;34.00;18.73;;;10.90;99.90;;;;;;5029880;28;20073;-68
2022/10/01 00:33:44;;;;;;;34.67;19.83;;;11.00;99.90;;;;;;5030034;28;20143;-70
2022/10/01 00:36:11;;;;;;;38.67;20.08;;;11.00;99.90;;;;;;5033321;28;20553;-71
2022/10/01 00:38:37;;;;;;;35.33;19.88;;;10.90;99.90;;;;;;5034911;28;20033;-68
2022/10/01 00:41:04;;;;;;;41.10;20.80;;;10.90;99.90;;;;;;5040713;28;20076;-68
2022/10/01 00:43:32;;;;;;;36.17;20.60;;;10.90;99.90;;;;;;5035676;28;20577;-70
2022/10/01 00:46:19;;;;;;;33.17;19.70;;;10.90;99.90;;;;;;5040108;28;20069;-68
2022/10/01 00:49:11;;;;;;;37.15;20.70;;;10.80;99.90;;;;;;5040234;28;20056;-67
2022/10/01 00:51:48;;;;;;;37.92;19.30;;;10.90;99.90;;;;;;5064086;28;20633;-69
2022/10/01 00:54:19;;;;;;;35.78;19.90;;;10.90;99.90;;;;;;5022137;28;20041;-70
2022/10/01 00:56:45;;;;;;;40.30;19.77;;;10.90;99.90;;;;;;5038672;28;20036;-69
2022/10/01 00:59:14;;;;;;;32.15;19.52;;;10.90;99.90;;;;;;5038155;28;20374;-68
2022/10/01 01:01:39;;;;;;;38.72;19.83;;;10.80;99.90;;;;;;5044237;28;20033;-69
2022/10/01 01:04:15;;;;;;;32.42;19.05;;;10.90;99.90;;;;;;5037284;28;20041;-70
2022/10/01 01:06:43;;;;;;;42.13;19.50;;;10.80;99.90;;;;;;5039824;28;20067;-69
2022/10/01 01:09:09;;;;;;;37.15;20.17;;;10.80;99.90;;;;;;5036993;28;20037;-69
2022/10/01 01:11:56;;;;;;;43.40;21.20;;;10.80;99.90;;;;;;5035241;28;20053;-69
2022/10/01 01:14:53;;;;;;;35.70;20.25;;;10.80;99.90;;;;;;5031636;28;20044;-67
2022/10/01 01:17:27;;;;;;;40.80;20.17;;;10.80;99.90;;;;;;5068862;28;20048;-68
2022/10/01 01:20:07;;;;;;;40.05;20.58;;;10.70;99.90;;;;;;5065904;28;20083;-69
2022/10/01 01:22:39;;;;;;;34.38;19.27;;;10.80;99.90;;;;;;5042973;28;20033;-68
2022/10/01 01:25:16;;;;;;;33.38;19.10;;;10.80;99.90;;;;;;5044605;28;20060;-68
2022/10/01 01:28:18;;;;;;;40.97;19.80;;;10.70;99.90;;;;;;5044998;28;20646;-69
2022/10/01 01:30:46;;;;;;;40.42;20.13;;;10.90;99.90;;;;;;5074352;28;20187;-67
2022/10/01 01:33:18;;;;;;;36.20;20.15;;;10.70;99.90;;;;;;5045773;28;20045;-68
2022/10/01 01:36:15;;;;;;;31.45;19.67;;;10.80;99.90;;;;;;5072233;28;20072;-68
2022/10/01 01:39:02;;;;;;;38.45;19.60;;;10.70;99.90;;;;;;5028217;28;20041;-68
2022/10/01 01:41:33;;;;;;;32.03;17.92;;;10.80;99.90;;;;;;5039604;28;20083;-69
2022/10/01 01:44:01;;;;;;;33.78;17.85;;;10.70;99.90;;;;;;5046792;28;20087;-68
2022/10/01 01:46:32;;;;;;;34.58;18.42;;;10.80;99.90;;;;;;5044400;28;20479;-69
2022/10/01 01:49:01;;;;;;;42.53;19.52;;;10.70;99.90;;;;;;5043516;28;20108;-68
2022/10/01 01:51:47;;;;;;;35.70;19.38;;;10.70;99.90;;;;;;5042161;28;20045;-69
2022/10/01 01:54:13;;;;;;;34.20;19.65;;;10.80;99.90;;;;;;5040521;28;20047;-67
2022/10/01 01:56:40;;;;;;;37.22;19.33;;;10.70;99.90;;;;;;5039270;28;20041;-70
2022/10/01 01:59:07;;;;;;;37.92;18.73;;;10.80;99.90;;;;;;5041257;28;20033;-68
2022/10/01 02:01:41;;;;;;;31.15;18.02;;;10.70;99.90;;;;;;5041723;28;20053;-67
2022/10/01 02:04:11;;;;;;;31.77;16.98;;;10.70;99.90;;;;;;5074816;28;20037;-67
2022/10/01 02:06:45;;;;;;;35.83;19.27;;;10.80;99.90;;;;;;5042110;28;20139;-68
2022/10/01 02:09:27;;;;;;;31.60;16.70;;;10.80;99.90;;;;;;5040940;28;20040;-66
2022/10/01 02:11:57;;;;;;;;;;;10.70;99.90;;;;;;5045765;28;20045;-68
2022/10/01 02:14:42;;;;;;;27.15;16.20;;;10.80;99.90;;;;;;5040405;28;20477;-68
2022/10/01 02:17:26;;;;;;;29.70;16.17;;;10.80;99.90;;;;;;5043676;28;20033;-71
2022/10/01 02:20:06;;;;;;;26.48;15.15;;;10.70;99.90;;;;;;5042334;28;20040;-67
2022/10/01 02:22:57;;;;;;;27.40;15.20;;;10.90;99.90;;;;;;5048070;28;20098;-67
2022/10/01 02:25:26;;;;;;;26.80;15.18;;;10.90;99.90;;;;;;5074186;28;20041;-65
2022/10/01 02:27:59;;;;;;;25.00;14.88;;;10.90;99.90;;;;;;5042499;28;20044;-70
2022/10/01 02:30:27;;;;;;;21.60;13.15;;;10.80;99.90;;;;;;5041495;28;20033;-65
2022/10/01 02:32:58;;;;;;;23.17;13.85;;;10.90;99.90;;;;;;5035977;28;20041;-69
2022/10/01 02:35:28;;;;;;;23.27;13.90;;;10.90;99.90;;;;;;5026940;28;20421;-65
2022/10/01 02:37:55;;;;;;;22.70;13.10;;;10.80;99.90;;;;;;5044263;28;20071;-68
2022/10/01 02:40:25;;;;;;;21.65;12.30;;;10.80;99.90;;;;;;5044485;28;20139;-66
2022/10/01 02:42:55;;;;;;;21.60;12.77;;;11.00;99.90;;;;;;5041304;28;20037;-66
2022/10/01 02:45:24;;;;;;;18.90;11.50;;;10.80;99.90;;;;;;5069319;28;20036;-65
2022/10/01 02:47:59;;;;;;;21.65;12.10;;;10.90;99.90;;;;;;5039732;28;20045;-65
2022/10/01 02:50:29;;;;;;;22.08;12.65;;;10.80;99.90;;;;;;5040790;28;20063;-64
2022/10/01 02:53:01;;;;;;;18.85;11.30;;;11.00;99.90;;;;;;5040564;28;20040;-64
2022/10/01 02:55:31;;;;;;;18.55;11.23;;;10.90;99.90;;;;;;5068758;28;20033;-66
2022/10/01 02:57:57;;;;;;;17.25;11.10;;;11.00;99.90;;;;;;5040268;28;20387;-65
2022/10/01 03:00:24;;;;;;;18.25;10.70;;;11.00;99.90;;;;;;5043614;28;20031;-66
2022/10/01 03:02:49;;;;;;;17.67;10.50;;;10.90;99.90;;;;;;5041334;28;20030;-66
2022/10/01 03:05:16;;;;;;;17.25;10.90;;;10.90;99.90;;;;;;5038520;28;20392;-66
2022/10/01 03:07:42;;;;;;;16.50;10.65;;;10.90;99.90;;;;;;5039960;28;20128;-66
2022/10/01 03:10:09;;;;;;;16.48;10.52;;;10.90;99.90;;;;;;5027056;28;20765;-67
2022/10/01 03:12:35;;;;;;;15.45;10.00;;;11.00;99.90;;;;;;5028465;28;20116;-66
2022/10/01 03:15:02;;;;;;;16.92;9.48;;;10.90;99.90;;;;;;5044502;28;20381;-68
2022/10/01 03:17:28;;;;;;;18.90;9.45;;;10.90;99.90;;;;;;5034905;28;20044;-71
2022/10/01 03:19:54;;;;;;;15.73;8.82;;;11.00;99.90;;;;;;5071819;28;20471;-65
2022/10/01 03:22:21;;;;;;;15.35;9.38;;;10.90;99.90;;;;;;5030215;28;20030;-68
2022/10/01 03:24:48;;;;;;;14.07;8.38;;;11.00;99.90;;;;;;5071738;28;20400;-66
2022/10/01 03:27:14;;;;;;;17.67;9.50;;;11.00;99.90;;;;;;5033915;28;20120;-66
2022/10/01 03:29:39;;;;;;;15.68;8.65;;;11.00;99.90;;;;;;5070820;28;20127;-68
2022/10/01 03:32:05;;;;;;;14.85;9.32;;;11.00;99.90;;;;;;5040495;28;20472;-67
2022/10/01 03:34:30;;;;;;;15.27;9.10;;;11.00;99.90;;;;;;5038361;28;20062;-65
2022/10/01 03:36:56;;;;;;;13.85;8.85;;;11.00;99.90;;;;;;5069953;28;20052;-64
2022/10/01 03:39:22;;;;;;;15.48;8.90;;;11.10;99.90;;;;;;5065626;28;20045;-64
2022/10/01 03:41:48;;;;;;;16.70;9.65;;;11.00;99.90;;;;;;5069037;28;20040;-66
2022/10/01 03:44:14;;;;;;;15.63;8.43;;;10.90;99.90;;;;;;5040051;28;20068;-64
2022/10/01 03:46:39;;;;;;;16.92;8.70;;;11.10;99.90;;;;;;5035091;28;20045;-65
2022/10/01 03:49:05;;;;;;;15.07;8.60;;;11.00;99.90;;;;;;5034865;28;20037;-67
2022/10/01 03:51:31;;;;;;;14.35;8.50;;;11.00;99.90;;;;;;5070879;28;20484;-66
2022/10/01 03:53:57;;;;;;;11.82;7.57;;;11.00;99.90;;;;;;5023283;28;20041;-66
2022/10/01 03:56:25;;;;;;;11.63;7.22;;;11.00;99.90;;;;;;5064068;28;20040;-65
2022/10/01 03:58:50;;;;;;;10.38;7.03;;;11.10;99.90;;;;;;5018404;28;20041;-67
2022/10/01 04:01:16;;;;;;;10.32;6.70;;;11.00;99.90;;;;;;5032857;28;20480;-65
2022/10/01 04:03:42;;;;;;;10.20;6.75;;;11.00;99.90;;;;;;5069651;28;20164;-66
2022/10/01 04:06:08;;;;;;;11.63;6.43;;;11.00;99.90;;;;;;5026097;28;20063;-65
2022/10/01 04:08:34;;;;;;;10.85;6.70;;;11.10;99.90;;;;;;5037338;28;20515;-66
2022/10/01 04:10:59;;;;;;;10.00;6.18;;;11.10;99.90;;;;;;5066643;28;20064;-66
2022/10/01 04:13:26;;;;;;;11.30;6.18;;;11.10;99.90;;;;;;5038668;28;20037;-67
2022/10/01 04:15:51;;;;;;;7.85;5.65;;;11.10;99.90;;;;;;5039815;28;20511;-66
2022/10/01 04:18:20;;;;;;;8.52;5.78;;;11.00;99.90;;;;;;5051423;28;20103;-67
2022/10/01 04:20:46;;;;;;;9.13;6.25;;;11.10;99.90;;;;;;5057140;28;20383;-66
2022/10/01 04:23:12;;;;;;;8.93;6.15;;;11.10;99.90;;;;;;5042889;28;20114;-65
2022/10/01 04:25:37;;;;;;;8.45;5.90;;;11.00;99.90;;;;;;5074864;28;20202;-65
2022/10/01 04:28:05;;;;;;;10.18;6.30;;;11.20;99.90;;;;;;5044266;28;20061;-66
2022/10/01 04:30:34;;;;;;;9.65;5.95;;;11.10;99.90;;;;;;5068170;28;20040;-65
2022/10/01 04:33:00;;;;;;;11.15;6.35;;;11.30;99.90;;;;;;5040351;28;20732;-65
2022/10/01 04:35:26;;;;;;;9.75;5.85;;;11.10;99.90;;;;;;5039310;28;20321;-64
2022/10/01 04:38:02;;;;;;;8.98;5.90;;;11.20;99.90;;;;;;5070959;28;20064;-67
2022/10/01 04:40:34;;;;;;;10.50;6.32;;;11.20;99.90;;;;;;5042371;28;20037;-65
2022/10/01 04:43:01;;;;;;;9.75;5.90;;;11.30;99.90;;;;;;5040947;28;20407;-65
2022/10/01 04:45:26;;;;;;;10.55;6.43;;;11.30;99.90;;;;;;5046159;28;20068;-65
2022/10/01 04:47:54;;;;;;;9.05;6.00;;;11.20;99.90;;;;;;5028012;28;20077;-65
2022/10/01 04:50:21;;;;;;;8.70;6.05;;;11.30;99.90;;;;;;5074996;28;20064;-65
2022/10/01 04:52:46;;;;;;;11.75;7.28;;;11.30;99.90;;;;;;5039544;28;20033;-65
2022/10/01 04:55:14;;;;;;;9.90;6.75;;;11.40;99.90;;;;;;5039290;28;20064;-64
2022/10/01 04:57:40;;;;;;;12.40;8.43;;;11.40;99.90;;;;;;5039531;28;20079;-66
2022/10/01 05:00:10;;;;;;;13.95;8.10;;;11.40;99.90;;;;;;5066467;28;20065;-65
2022/10/01 05:02:36;;;;;;;13.77;8.13;;;11.50;99.90;;;;;;5071019;28;20033;-65
2022/10/01 05:05:06;;;;;;;13.65;9.00;;;11.60;99.90;;;;;;5038920;28;20156;-64
2022/10/01 05:07:33;;;;;;;12.60;8.63;;;11.60;99.90;;;;;;5075967;28;20037;-64
2022/10/01 05:09:59;;;;;;;13.98;9.20;;;11.50;99.90;;;;;;5038124;28;20043;-64
2022/10/01 05:12:26;;;;;;;13.15;8.63;;;11.50;99.90;;;;;;5035934;28;20376;-64
2022/10/01 05:14:52;;;;;;;14.30;9.50;;;11.60;99.90;;;;;;5037607;28;20396;-65
2022/10/01 05:17:18;;;;;;;15.73;9.57;;;11.50;99.90;;;;;;5038819;28;20037;-63
2022/10/01 05:19:44;;;;;;;15.85;9.40;;;11.70;99.90;;;;;;5043586;28;20093;-64
2022/10/01 05:22:11;;;;;;;16.23;10.35;;;11.60;99.90;;;;;;5066959;28;20091;-65
2022/10/01 05:24:37;;;;;;;17.25;10.60;;;11.70;99.90;;;;;;5038301;28;20048;-64
2022/10/01 05:27:02;;;;;;;18.63;11.27;;;11.80;99.90;;;;;;5039555;28;20057;-65
2022/10/01 05:29:28;;;;;;;16.95;11.40;;;11.90;99.90;;;;;;5040883;28;20172;-63
2022/10/01 05:31:54;;;;;;;18.55;12.15;;;11.80;99.90;;;;;;5055324;28;20040;-64
2022/10/01 05:34:19;;;;;;;18.60;12.68;;;11.80;99.90;;;;;;5043504;28;20089;-65
2022/10/01 05:36:45;;;;;;;21.25;13.20;;;11.80;99.90;;;;;;5034888;28;20030;-63
2022/10/01 05:39:10;;;;;;;18.20;12.38;;;11.80;99.90;;;;;;5040226;28;20469;-65
2022/10/01 05:41:37;;;;;;;17.35;13.20;;;11.80;99.90;;;;;;5063248;28;20040;-66
2022/10/01 05:44:02;;;;;;;23.40;14.10;;;12.00;99.90;;;;;;5056031;28;20074;-65
2022/10/01 05:46:28;;;;;;;21.40;14.00;;;12.00;99.90;;;;;;5034850;28;20041;-65
2022/10/01 05:48:53;;;;;;;22.33;14.13;;;11.90;99.90;;;;;;5035978;28;20045;-64
2022/10/01 05:51:19;;;;;;;23.20;14.63;;;11.90;99.90;;;;;;5037693;28;20076;-64
2022/10/01 05:53:47;;;;;;;21.02;14.05;;;11.90;99.90;;;;;;5033639;28;20044;-64
2022/10/01 05:56:14;;;;;;;24.02;15.38;;;11.90;99.90;;;;;;5039808;28;20048;-64
2022/10/01 05:58:39;;;;;;;25.75;16.27;;;11.80;99.90;;;;;;5035574;28;20041;-64
2022/10/01 06:01:05;;;;;;;24.73;15.65;;;11.80;99.90;;;;;;5035581;28;20087;-65
2022/10/01 06:03:31;;;;;;;30.10;17.20;;;12.00;99.90;;;;;;5037486;28;20448;-63
2022/10/01 06:05:56;;;;;;;24.42;16.60;;;11.90;99.90;;;;;;5040059;28;20388;-65
2022/10/01 06:08:22;;;;;;;27.92;18.17;;;11.90;99.90;;;;;;5036206;28;20380;-63
2022/10/01 06:10:48;;;;;;;24.48;17.73;;;12.10;99.90;;;;;;5044534;28;20044;-66
2022/10/01 06:13:16;;;;;;;29.17;18.20;;;11.90;99.90;;;;;;5041728;28;20118;-65
2022/10/01 06:15:43;;;;;;;29.75;18.50;;;12.00;99.90;;;;;;5043191;28;20043;-64
2022/10/01 06:18:10;;;;;;;30.75;19.42;;;12.20;99.90;;;;;;5055995;28;20029;-65
2022/10/01 06:20:37;;;;;;;30.10;19.55;;;12.00;99.90;;;;;;5042827;28;20041;-64
2022/10/01 06:23:06;;;;;;;27.80;18.50;;;12.10;99.90;;;;;;5037793;28;20048;-64
2022/10/01 06:25:33;;;;;;;32.20;19.92;;;12.00;99.90;;;;;;5064122;28;20044;-65
2022/10/01 06:28:00;;;;;;;30.23;18.92;;;12.10;99.90;;;;;;5073742;28;20056;-66
2022/10/01 06:30:30;;;;;;;32.58;19.02;;;12.10;99.90;;;;;;5038003;28;20040;-65
2022/10/01 06:33:05;;;;;;;29.65;19.17;;;12.10;99.90;;;;;;5043082;28;20399;-65
2022/10/01 06:35:32;;;;;;;31.15;19.90;;;12.00;99.90;;;;;;5046055;28;20400;-65
2022/10/01 06:38:00;;;;;;;31.88;18.58;;;12.00;99.90;;;;;;5044746;28;20416;-64
2022/10/01 06:40:28;;;;;;;25.08;17.85;;;12.00;99.90;;;;;;5039681;28;20171;-64
2022/10/01 06:42:57;;;;;;;35.00;19.73;;;12.00;99.90;;;;;;5040939;28;20036;-66
2022/10/01 06:45:29;;;;;;;34.10;19.88;;;12.10;99.90;;;;;;5039941;28;20128;-65
2022/10/01 06:47:55;;;;;;;;;;;12.20;99.90;;;;;;5074031;28;20049;-65
2022/10/01 06:50:22;;;;;;;33.63;19.77;;;12.20;99.90;;;;;;5035724;28;19963;-66
2022/10/01 06:52:48;;;;;;;30.50;19.48;;;12.30;99.90;;;;;;5041077;28;20407;-64
2022/10/01 06:55:18;;;;;;;32.30;19.00;;;12.30;99.90;;;;;;5044023;28;20086;-66
2022/10/01 06:57:44;;;;;;;31.35;19.10;;;12.30;99.90;;;;;;5045046;28;20098;-67
2022/10/01 07:00:11;;;;;;;29.05;18.80;;;12.40;99.90;;;;;;5040098;28;20048;-65
2022/10/01 07:02:37;;;;;;;33.75;19.60;;;12.40;99.90;;;;;;5039642;28;20024;-64
2022/10/01 07:05:03;;;;;;;30.08;18.50;;;12.50;99.90;;;;;;5043631;28;20045;-65
2022/10/01 07:07:34;;;;;;;30.90;18.52;;;12.50;99.90;;;;;;5046304;28;20041;-65
2022/10/01 07:10:00;;;;;;;33.05;19.40;;;12.50;99.90;;;;;;5041954;28;20060;-66
2022/10/01 07:12:26;;;;;;;29.23;18.35;;;12.60;99.90;;;;;;5038519;28;20052;-65
2022/10/01 07:14:53;;;;;;;31.33;19.23;;;12.60;99.90;;;;;;5040205;28;20660;-65
2022/10/01 07:17:19;;;;;;;29.73;18.48;;;12.50;99.90;;;;;;5036830;28;20059;-65
2022/10/01 07:19:45;;;;;;;34.17;19.15;;;12.70;99.90;;;;;;5043672;28;20080;-66
2022/10/01 07:22:10;;;;;;;30.23;18.13;;;12.80;99.90;;;;;;5068451;28;20041;-67
2022/10/01 07:24:36;;;;;;;32.13;18.08;;;12.80;99.90;;;;;;5033083;28;20033;-65
2022/10/01 07:27:01;;;;;;;31.60;17.17;;;12.80;99.90;;;;;;5029557;28;20102;-63
2022/10/01 07:29:29;;;;;;;26.83;16.70;;;12.90;99.90;;;;;;5068226;28;20041;-65
2022/10/01 07:31:58;;;;;;;27.38;16.30;;;12.90;99.90;;;;;;5040564;28;20037;-65
2022/10/01 07:34:24;;;;;;;27.98;14.82;;;12.90;99.90;;;;;;5036885;28;20041;-65
2022/10/01 07:36:50;;;;;;;29.20;14.00;;;13.00;99.90;;;;;;5032316;28;20072;-64
2022/10/01 07:39:16;;;;;;;27.40;13.38;;;13.00;99.90;;;;;;5039139;28;20063;-65
2022/10/01 07:41:42;;;;;;;29.73;14.18;;;13.30;99.90;;;;;;5036748;28;20036;-65
2022/10/01 07:44:10;;;;;;;18.73;12.15;;;13.20;99.90;;;;;;5043704;28;20167;-65
2022/10/01 07:46:39;;;;;;;23.70;10.70;;;13.30;99.90;;;;;;5032799;28;20033;-67
2022/10/01 07:49:05;;;;;;;21.88;10.45;;;13.40;99.90;;;;;;5061937;28;20722;-64
2022/10/01 07:51:31;;;;;;;19.65;9.50;;;13.60;99.90;;;;;;5033557;28;20040;-64
2022/10/01 07:53:57;;;;;;;22.63;8.82;;;13.70;99.90;;;;;;5048662;28;20044;-64
2022/10/01 07:56:24;;;;;;;18.70;9.07;;;13.80;99.90;;;;;;5036900;28;20040;-67
2022/10/01 07:58:53;;;;;;;20.73;8.50;;;13.90;99.90;;;;;;5034372;28;20030;-66
2022/10/01 08:01:19;;;;;;;21.13;8.07;;;13.90;99.90;;;;;;5021248;28;20033;-65
2022/10/01 08:03:47;;;;;;;15.27;7.30;;;14.10;99.90;;;;;;5066051;28;20087;-66
2022/10/01 08:06:13;;;;;;;17.17;8.13;;;14.20;99.90;;;;;;5030288;28;20052;-66
2022/10/01 08:08:39;;;;;;;18.67;7.80;;;14.10;99.90;;;;;;5067343;28;20041;-66
2022/10/01 08:11:06;;;;;;;17.48;6.88;;;14.10;99.90;;;;;;5070179;28;20040;-66
2022/10/01 08:13:33;;;;;;;18.85;6.57;;;14.10;99.90;;;;;;5053948;28;20069;-66
2022/10/01 08:16:02;;;;;;;16.52;6.88;;;14.30;99.90;;;;;;5038656;28;20046;-65
2022/10/01 08:18:28;;;;;;;17.48;6.50;;;14.20;99.90;;;;;;5040142;28;20041;-65
2022/10/01 08:20:54;;;;;;;18.42;6.45;;;14.30;99.90;;;;;;5072814;28;20037;-66
2022/10/01 08:23:20;;;;;;;15.57;5.68;;;14.30;99.90;;;;;;5065987;28;20040;-66
2022/10/01 08:25:46;;;;;;;15.05;5.50;;;14.30;99.90;;;;;;5039670;28;20103;-64
2022/10/01 08:28:13;;;;;;;18.58;5.68;;;14.20;99.90;;;;;;5031895;28;20102;-67
2022/10/01 08:30:40;;;;;;;16.27;6.80;;;14.30;99.90;;;;;;5037777;28;20369;-66
2022/10/01 08:33:08;;;;;;;15.60;6.40;;;14.40;99.90;;;;;;5041582;28;20049;-64
2022/10/01 08:35:38;;;;;;;14.63;5.68;;;14.70;99.90;;;;;;5034665;28;20033;-66
2022/10/01 08:38:05;;;;;;;19.33;6.38;;;14.80;99.90;;;;;;5035893;28;20049;-66
2022/10/01 08:40:36;;;;;;;11.40;6.07;;;15.20;99.90;;;;;;5063183;28;20518;-67
2022/10/01 08:43:05;;;;;;;16.43;5.17;;;15.40;99.90;;;;;;5032188;28;20040;-66
2022/10/01 08:45:31;;;;;;;16.65;5.55;;;15.30;99.90;;;;;;5035990;28;20048;-67
2022/10/01 08:48:28;;;;;;;15.10;4.97;;;15.10;99.90;;;;;;5028521;28;20415;-67
2022/10/01 08:51:02;;;;;;;14.35;3.80;;;15.00;99.90;;;;;;5032662;28;20048;-69
2022/10/01 08:53:43;;;;;;;16.15;4.75;;;14.70;99.90;;;;;;5068727;28;20029;-66
2022/10/01 08:56:28;;;;;;;13.32;3.35;;;14.70;99.90;;;;;;5064345;28;20040;-66
2022/10/01 08:59:01;;;;;;;12.10;3.20;;;14.60;99.90;;;;;;5064651;28;20067;-65
2022/10/01 09:01:28;;;;;;;14.93;3.03;;;14.50;99.90;;;;;;5037702;28;20047;-67
2022/10/01 09:03:54;;;;;;;14.93;3.95;;;14.60;99.90;;;;;;5039162;28;20462;-67
2022/10/01 09:06:25;;;;;;;13.32;2.60;;;14.80;99.90;;;;;;5040105;28;20478;-66
2022/10/01 09:09:24;;;;;;;9.68;1.83;;;14.60;99.90;;;;;;5065335;28;20052;-64
2022/10/01 09:12:15;;;;;;;6.45;1.85;;;14.30;99.90;;;;;;5035976;28;20449;-66
2022/10/01 09:15:15;;;;;;;7.90;1.70;;;14.20;99.90;;;;;;5068546;28;20045;-67
2022/10/01 09:17:46;;;;;;;7.13;1.70;;;14.00;99.90;;;;;;5037781;28;20141;-66
2022/10/01 09:20:19;;;;;;;6.73;1.33;;;14.00;99.90;;;;;;5044707;28;20037;-68
2022/10/01 09:22:54;;;;;;;5.60;1.33;;;13.90;99.90;;;;;;5037345;28;20080;-65
2022/10/01 09:25:23;;;;;;;6.38;1.50;;;14.00;99.90;;;;;;5033963;28;20037;-66
2022/10/01 09:27:55;;;;;;;11.05;1.70;;;14.10;99.90;;;;;;5036615;28;20094;-67
2022/10/01 09:30:23;;;;;;;4.13;1.45;;;14.30;99.90;;;;;;5039727;28;20127;-67
2022/10/01 09:32:57;;;;;;;4.63;1.33;;;14.50;99.90;;;;;;5072470;28;20040;-66
2022/10/01 09:35:31;;;;;;;9.93;1.80;;;14.50;99.90;;;;;;5034233;28;20040;-65
2022/10/01 09:38:02;;;;;;;5.43;1.27;;;14.70;99.90;;;;;;5045290;28;20040;-67
2022/10/01 09:40:40;;;;;;;5.22;1.60;;;14.90;99.90;;;;;;5042571;28;20049;-66
2022/10/01 09:43:08;;;;;;;5.18;1.30;;;15.00;99.90;;;;;;5045702;28;20044;-67
2022/10/01 09:45:34;;;;;;;8.82;1.50;;;15.30;99.90;;;;;;5043626;28;20041;-68
2022/10/01 09:48:39;;;;;;;5.53;1.30;;;15.40;99.90;;;;;;5068212;28;20515;-67
2022/10/01 09:51:21;;;;;;;13.65;2.28;;;15.70;99.90;;;;;;5056956;28;20044;-67
2022/10/01 09:54:11;;;;;;;8.35;2.42;;;15.60;99.90;;;;;;5075631;28;20079;-67
2022/10/01 09:56:41;;;;;;;16.02;4.05;;;15.60;99.90;;;;;;5040622;28;20510;-67
2022/10/01 09:59:16;;;;;;;19.33;4.10;;;15.70;99.90;;;;;;5053369;28;20041;-66
2022/10/01 10:01:49;;;;;;;14.10;3.90;;;15.70;99.90;;;;;;5039453;28;20125;-64
2022/10/01 10:04:20;;;;;;;17.55;3.90;;;15.60;99.90;;;;;;5073310;28;20075;-67
2022/10/01 10:06:46;;;;;;;22.30;4.63;;;15.50;99.90;;;;;;5041392;28;20041;-66
2022/10/01 10:09:17;;;;;;;11.77;4.05;;;15.40;99.90;;;;;;5036972;28;20415;-67
2022/10/01 10:11:44;;;;;;;18.10;4.60;;;15.50;99.90;;;;;;5041773;28;20692;-65
2022/10/01 10:14:23;;;;;;;17.45;4.78;;;15.40;99.90;;;;;;5069059;28;20304;-66
2022/10/01 10:16:50;;;;;;;18.50;4.40;;;15.40;99.90;;;;;;5035165;28;20040;-65
2022/10/01 10:19:25;;;;;;;16.35;5.15;;;15.30;99.90;;;;;;5036797;28;20387;-63
2022/10/01 10:21:59;;;;;;;14.88;3.75;;;15.10;99.90;;;;;;5035370;28;20045;-64
2022/10/01 10:24:33;;;;;;;16.92;4.22;;;14.90;99.90;;;;;;5037767;28;20044;-63
2022/10/01 10:27:01;;;;;;;19.95;5.10;;;14.80;99.90;;;;;;5038656;28;20033;-64
2022/10/01 10:29:34;;;;;;;19.13;4.60;;;14.70;99.90;;;;;;5067490;28;20028;-62
2022/10/01 10:32:13;;;;;;;14.48;3.97;;;14.80;99.90;;;;;;5043847;28;20484;-67
2022/10/01 10:34:45;;;;;;;18.58;4.20;;;14.80;99.90;;;;;;5037965;28;21847;-67
2022/10/01 10:37:22;;;;;;;18.98;4.82;;;15.10;99.90;;;;;;5034275;28;20041;-65
2022/10/01 10:39:52;;;;;;;17.40;4.97;;;15.20;99.90;;;;;;5068416;28;20041;-65
2022/10/01 10:42:21;;;;;;;22.80;4.38;;;15.10;99.90;;;;;;5037378;28;20464;-66
2022/10/01 10:44:49;;;;;;;21.45;4.80;;;15.30;99.90;;;;;;5032308;28;20056;-65
2022/10/01 10:47:18;;;;;;;15.00;3.50;;;15.30;99.90;;;;;;5033173;28;20044;-63
2022/10/01 10:49:44;;;;;;;10.18;2.50;;;15.50;99.90;;;;;;5031746;28;20439;-66
2022/10/01 10:52:28;;;;;;;11.88;2.67;;;15.60;99.90;;;;;;5035480;28;20130;-65
2022/10/01 10:54:56;;;;;;;12.07;2.20;;;15.00;99.90;;;;;;5063362;28;21245;-65
2022/10/01 10:57:33;;;;;;;6.30;1.67;;;14.50;99.90;;;;;;5069538;28;20048;-63
2022/10/01 11:00:01;;;;;;;6.35;1.63;;;14.10;99.90;;;;;;5066167;28;20443;-66
2022/10/01 11:02:29;;;;;;;9.30;1.90;;;13.70;99.90;;;;;;5029568;28;20037;-65
2022/10/01 11:04:57;;;;;;;11.77;2.20;;;13.60;99.90;;;;;;5037059;28;20129;-65
2022/10/01 11:07:25;;;;;;;12.35;2.03;;;13.60;99.90;;;;;;5039408;28;20041;-64
2022/10/01 11:10:04;;;;;;;11.10;2.75;;;13.50;99.90;;;;;;5036991;28;20045;-64
2022/10/01 11:12:49;;;;;;;9.95;2.03;;;13.50;99.90;;;;;;5064362;28;20287;-64
2022/10/01 11:16:10;;;;;;;13.18;3.13;;;13.40;99.90;;;;;;5032712;28;20479;-65
2022/10/01 11:19:20;;;;;;;18.23;2.53;;;13.60;99.90;;;;;;5026179;28;20080;-63
2022/10/01 11:21:58;;;;;;;13.60;2.60;;;13.50;99.90;;;;;;5049181;28;20056;-63
2022/10/01 11:24:51;;;;;;;13.68;2.80;;;13.40;99.90;;;;;;5035778;28;20057;-64
2022/10/01 11:27:37;;;;;;;14.60;2.85;;;13.40;99.90;;;;;;5059867;28;20040;-63
2022/10/01 11:30:21;;;;;;;17.05;2.75;;;13.50;99.90;;;;;;5035852;28;20037;-62
2022/10/01 11:33:23;;;;;;;14.50;2.78;;;13.30;99.90;;;;;;5034819;28;20040;-64
2022/10/01 11:36:06;;;;;;;16.10;2.78;;;13.30;99.90;;;;;;5035671;28;20475;-64
2022/10/01 11:39:02;;;;;;;15.35;3.30;;;13.30;99.90;;;;;;5031295;28;20124;-64
2022/10/01 11:41:37;;;;;;;13.05;3.05;;;13.60;99.90;;;;;;5065242;28;20045;-64
2022/10/01 11:44:27;;;;;;;21.10;3.35;;;14.00;99.90;;;;;;5030600;28;20123;-65
2022/10/01 11:47:12;;;;;;;19.33;3.47;;;14.00;99.90;;;;;;5025733;28;20048;-65
2022/10/01 11:50:01;;;;;;;16.75;3.50;;;14.40;99.90;;;;;;5065203;28;20110;-66
2022/10/01 11:52:46;;;;;;;19.35;4.10;;;14.50;99.90;;;;;;5032131;28;20037;-65
2022/10/01 12:01:25;;;;;;;17.70;3.53;;;15.00;99.90;;;;;;5035926;28;20103;-66
2022/10/01 12:03:51;;;;;;;23.73;3.90;;;15.30;99.90;;;;;;5063764;28;20374;-65
2022/10/01 12:06:39;;;;;;;20.63;3.90;;;15.50;99.90;;;;;;5041005;28;20067;-64
2022/10/01 12:09:34;;;;;;;21.30;4.50;;;15.80;99.90;;;;;;5072463;28;20395;-64
2022/10/01 12:12:22;;;;;;;24.73;3.47;;;15.40;99.90;;;;;;5067770;28;20037;-62
2022/10/01 12:15:14;;;;;;;23.60;4.35;;;15.20;99.90;;;;;;5041486;28;20133;-61
2022/10/01 12:17:45;;;;;;;18.87;3.80;;;15.00;99.90;;;;;;5041835;28;20052;-62
2022/10/01 12:20:20;;;;;;;13.25;2.90;;;14.80;99.90;;;;;;5029555;28;20040;-61
2022/10/01 12:22:47;;;;;;;17.23;2.92;;;14.60;99.90;;;;;;5042593;28;20052;-62
2022/10/01 12:25:13;;;;;;;27.45;3.63;;;14.40;99.90;;;;;;5043692;28;20243;-62
2022/10/01 12:27:46;;;;;;;18.50;3.40;;;14.30;99.90;;;;;;5043118;28;20530;-64
2022/10/01 12:30:18;;;;;;;16.13;3.53;;;14.20;99.90;;;;;;5043873;28;20298;-62
2022/10/01 12:32:58;;;;;;;12.77;3.53;;;14.20;99.90;;;;;;5071593;28;20041;-62
2022/10/01 12:35:42;;;;;;;16.02;3.35;;;14.10;99.90;;;;;;5044965;28;20057;-64
2022/10/01 12:38:23;;;;;;;17.42;3.42;;;14.20;99.90;;;;;;5074096;28;20041;-64
2022/10/01 12:41:01;;;;;;;19.10;3.55;;;14.40;99.90;;;;;;5075820;28;20041;-62
2022/10/01 12:43:55;;;;;;;20.98;3.75;;;14.40;99.90;;;;;;5044171;28;20399;-63
2022/10/01 12:46:32;;;;;;;23.77;3.40;;;14.50;99.90;;;;;;5044408;28;20037;-64
2022/10/01 12:49:21;;;;;;;23.20;3.88;;;14.70;99.90;;;;;;5034299;28;20041;-66
2022/10/01 12:51:53;;;;;;;21.83;3.17;;;14.60;99.90;;;;;;5037322;28;20049;-64
2022/10/01 12:54:29;;;;;;;;;;;14.90;99.90;;;;;;5037487;28;20446;-65
2022/10/01 12:57:01;;;;;;;23.75;3.53;;;15.10;99.90;;;;;;5066527;28;20302;-66
2022/10/01 12:59:35;;;;;;;21.13;3.22;;;15.40;99.90;;;;;;5038255;28;20037;-64
2022/10/01 13:02:23;;;;;;;20.08;3.30;;;15.80;99.90;;;;;;5037571;28;20037;-65